sensor_id;sensor_type;location;lat;lon;timestamp;P1;durP1;ratioP1;P2;durP2;ratioP2
63688;SDS011;54895;40.928;14.480;2024-01-30T00:00:22;20.08;;;13.07;;
63688;SDS011;54895;40.928;14.480;2024-01-30T00:02:48;20.33;;;12.15;;
63688;SDS011;54895;40.928;14.480;2024-01-30T00:05:14;18.58;;;11.38;;
63688;SDS011;54895;40.928;14.480;2024-01-30T00:07:41;15.57;;;8.40;;
63688;SDS011;54895;40.928;14.480;2024-01-30T00:10:07;24.52;;;14.80;;
63688;SDS011;54895;40.928;14.480;2024-01-30T00:12:34;18.38;;;11.30;;
63688;SDS011;54895;40.928;14.480;2024-01-30T00:15:00;17.75;;;10.93;;
63688;SDS011;54895;40.928;14.480;2024-01-30T00:17:26;18.88;;;11.18;;
63688;SDS011;54895;40.928;14.480;2024-01-30T00:19:53;20.30;;;11.35;;
63688;SDS011;54895;40.928;14.480;2024-01-30T00:22:19;20.35;;;12.05;;
63688;SDS011;54895;40.928;14.480;2024-01-30T00:24:45;17.33;;;9.90;;
63688;SDS011;54895;40.928;14.480;2024-01-30T00:27:12;15.52;;;9.02;;
63688;SDS011;54895;40.928;14.480;2024-01-30T00:29:38;15.23;;;8.93;;
63688;SDS011;54895;40.928;14.480;2024-01-30T00:35:55;13.10;;;7.63;;
63688;SDS011;54895;40.928;14.480;2024-01-30T00:38:25;18.00;;;11.10;;
63688;SDS011;54895;40.928;14.480;2024-01-30T00:40:52;10.73;;;6.53;;
63688;SDS011;54895;40.928;14.480;2024-01-30T00:43:19;8.55;;;4.65;;
63688;SDS011;54895;40.928;14.480;2024-01-30T00:45:47;9.88;;;5.97;;
63688;SDS011;54895;40.928;14.480;2024-01-30T00:48:14;10.95;;;6.60;;
63688;SDS011;54895;40.928;14.480;2024-01-30T00:50:40;11.75;;;6.40;;
63688;SDS011;54895;40.928;14.480;2024-01-30T00:53:07;8.70;;;5.72;;
63688;SDS011;54895;40.928;14.480;2024-01-30T00:55:34;7.03;;;4.72;;
63688;SDS011;54895;40.928;14.480;2024-01-30T00:58:01;8.35;;;4.78;;
63688;SDS011;54895;40.928;14.480;2024-01-30T01:00:30;8.73;;;5.00;;
63688;SDS011;54895;40.928;14.480;2024-01-30T01:02:58;8.45;;;4.72;;
63688;SDS011;54895;40.928;14.480;2024-01-30T01:05:25;8.73;;;4.95;;
63688;SDS011;54895;40.928;14.480;2024-01-30T01:07:53;8.35;;;5.15;;
63688;SDS011;54895;40.928;14.480;2024-01-30T01:10:19;8.25;;;5.38;;
63688;SDS011;54895;40.928;14.480;2024-01-30T01:12:47;8.85;;;6.38;;
63688;SDS011;54895;40.928;14.480;2024-01-30T01:15:14;9.68;;;6.50;;
63688;SDS011;54895;40.928;14.480;2024-01-30T01:17:41;11.80;;;7.50;;
63688;SDS011;54895;40.928;14.480;2024-01-30T01:20:08;12.50;;;7.07;;
63688;SDS011;54895;40.928;14.480;2024-01-30T01:22:37;9.68;;;7.10;;
63688;SDS011;54895;40.928;14.480;2024-01-30T01:25:05;13.68;;;6.90;;
63688;SDS011;54895;40.928;14.480;2024-01-30T01:27:34;12.88;;;7.50;;
63688;SDS011;54895;40.928;14.480;2024-01-30T01:30:07;11.25;;;7.10;;
63688;SDS011;54895;40.928;14.480;2024-01-30T01:36:25;10.63;;;7.20;;
63688;SDS011;54895;40.928;14.480;2024-01-30T01:38:52;14.23;;;8.60;;
63688;SDS011;54895;40.928;14.480;2024-01-30T01:41:18;13.00;;;8.55;;
63688;SDS011;54895;40.928;14.480;2024-01-30T01:43:45;16.10;;;8.80;;
63688;SDS011;54895;40.928;14.480;2024-01-30T01:46:11;15.20;;;9.13;;
63688;SDS011;54895;40.928;14.480;2024-01-30T01:48:38;14.07;;;8.98;;
63688;SDS011;54895;40.928;14.480;2024-01-30T01:51:06;14.48;;;9.77;;
63688;SDS011;54895;40.928;14.480;2024-01-30T01:53:33;14.25;;;9.63;;
63688;SDS011;54895;40.928;14.480;2024-01-30T01:55:59;10.45;;;7.57;;
63688;SDS011;54895;40.928;14.480;2024-01-30T01:58:26;13.80;;;7.72;;
63688;SDS011;54895;40.928;14.480;2024-01-30T02:00:58;15.18;;;9.55;;
63688;SDS011;54895;40.928;14.480;2024-01-30T02:03:25;14.05;;;8.48;;
63688;SDS011;54895;40.928;14.480;2024-01-30T02:05:51;16.33;;;11.18;;
63688;SDS011;54895;40.928;14.480;2024-01-30T02:08:18;17.27;;;11.55;;
63688;SDS011;54895;40.928;14.480;2024-01-30T02:10:44;18.17;;;10.93;;
63688;SDS011;54895;40.928;14.480;2024-01-30T02:13:11;21.67;;;13.45;;
63688;SDS011;54895;40.928;14.480;2024-01-30T02:15:37;27.90;;;14.85;;
63688;SDS011;54895;40.928;14.480;2024-01-30T02:18:04;23.08;;;12.88;;
63688;SDS011;54895;40.928;14.480;2024-01-30T02:20:32;19.25;;;12.63;;
63688;SDS011;54895;40.928;14.480;2024-01-30T02:23:01;19.80;;;13.35;;
63688;SDS011;54895;40.928;14.480;2024-01-30T02:25:32;21.42;;;12.32;;
63688;SDS011;54895;40.928;14.480;2024-01-30T02:28:10;22.67;;;13.60;;
63688;SDS011;54895;40.928;14.480;2024-01-30T02:30:44;18.77;;;12.90;;
63688;SDS011;54895;40.928;14.480;2024-01-30T02:36:28;17.08;;;11.45;;
63688;SDS011;54895;40.928;14.480;2024-01-30T02:38:54;16.52;;;9.43;;
63688;SDS011;54895;40.928;14.480;2024-01-30T02:41:21;20.52;;;13.05;;
63688;SDS011;54895;40.928;14.480;2024-01-30T02:43:47;15.48;;;9.13;;
63688;SDS011;54895;40.928;14.480;2024-01-30T02:46:13;14.50;;;7.90;;
63688;SDS011;54895;40.928;14.480;2024-01-30T02:48:40;14.68;;;8.00;;
63688;SDS011;54895;40.928;14.480;2024-01-30T02:51:06;13.20;;;8.70;;
63688;SDS011;54895;40.928;14.480;2024-01-30T02:53:33;13.15;;;8.38;;
63688;SDS011;54895;40.928;14.480;2024-01-30T02:55:59;14.50;;;8.20;;
63688;SDS011;54895;40.928;14.480;2024-01-30T02:58:25;10.38;;;6.82;;
63688;SDS011;54895;40.928;14.480;2024-01-30T03:00:52;13.25;;;7.35;;
63688;SDS011;54895;40.928;14.480;2024-01-30T03:03:18;12.25;;;7.63;;
63688;SDS011;54895;40.928;14.480;2024-01-30T03:05:44;15.63;;;7.72;;
63688;SDS011;54895;40.928;14.480;2024-01-30T03:08:11;72.65;;;12.93;;
63688;SDS011;54895;40.928;14.480;2024-01-30T03:10:37;99.95;;;17.17;;
63688;SDS011;54895;40.928;14.480;2024-01-30T03:13:03;175.68;;;25.95;;
63688;SDS011;54895;40.928;14.480;2024-01-30T03:15:30;142.80;;;20.73;;
63688;SDS011;54895;40.928;14.480;2024-01-30T03:17:56;20.83;;;8.38;;
63688;SDS011;54895;40.928;14.480;2024-01-30T03:20:22;115.80;;;17.90;;
63688;SDS011;54895;40.928;14.480;2024-01-30T03:22:49;36.47;;;9.07;;
63688;SDS011;54895;40.928;14.480;2024-01-30T03:25:15;35.25;;;8.07;;
63688;SDS011;54895;40.928;14.480;2024-01-30T03:27:41;34.80;;;10.13;;
63688;SDS011;54895;40.928;14.480;2024-01-30T03:30:09;19.20;;;6.53;;
63688;SDS011;54895;40.928;14.480;2024-01-30T03:36:19;11.18;;;5.72;;
63688;SDS011;54895;40.928;14.480;2024-01-30T03:38:46;10.77;;;4.70;;
63688;SDS011;54895;40.928;14.480;2024-01-30T03:41:13;11.90;;;5.20;;
63688;SDS011;54895;40.928;14.480;2024-01-30T03:43:40;14.88;;;5.88;;
63688;SDS011;54895;40.928;14.480;2024-01-30T03:46:06;10.38;;;4.88;;
63688;SDS011;54895;40.928;14.480;2024-01-30T03:48:33;8.05;;;4.68;;
63688;SDS011;54895;40.928;14.480;2024-01-30T03:50:59;13.73;;;5.68;;
63688;SDS011;54895;40.928;14.480;2024-01-30T03:53:26;10.85;;;5.35;;
63688;SDS011;54895;40.928;14.480;2024-01-30T03:55:53;10.93;;;5.10;;
63688;SDS011;54895;40.928;14.480;2024-01-30T03:58:19;8.07;;;4.97;;
63688;SDS011;54895;40.928;14.480;2024-01-30T04:00:45;14.02;;;6.05;;
63688;SDS011;54895;40.928;14.480;2024-01-30T04:03:12;12.95;;;5.50;;
63688;SDS011;54895;40.928;14.480;2024-01-30T04:05:38;6.57;;;4.10;;
63688;SDS011;54895;40.928;14.480;2024-01-30T04:08:04;9.57;;;5.05;;
63688;SDS011;54895;40.928;14.480;2024-01-30T04:10:31;9.38;;;5.07;;
63688;SDS011;54895;40.928;14.480;2024-01-30T04:12:57;9.85;;;5.15;;
63688;SDS011;54895;40.928;14.480;2024-01-30T04:15:23;13.65;;;4.95;;
63688;SDS011;54895;40.928;14.480;2024-01-30T04:17:49;13.07;;;5.50;;
63688;SDS011;54895;40.928;14.480;2024-01-30T04:20:16;16.50;;;6.63;;
63688;SDS011;54895;40.928;14.480;2024-01-30T04:22:43;20.33;;;7.32;;
63688;SDS011;54895;40.928;14.480;2024-01-30T04:25:13;18.52;;;7.25;;
63688;SDS011;54895;40.928;14.480;2024-01-30T04:27:39;16.50;;;6.75;;
63688;SDS011;54895;40.928;14.480;2024-01-30T04:30:06;11.65;;;5.25;;
63688;SDS011;54895;40.928;14.480;2024-01-30T04:36:21;10.95;;;5.72;;
63688;SDS011;54895;40.928;14.480;2024-01-30T04:38:47;14.52;;;6.15;;
63688;SDS011;54895;40.928;14.480;2024-01-30T04:41:14;13.05;;;6.05;;
63688;SDS011;54895;40.928;14.480;2024-01-30T04:43:41;14.23;;;6.85;;
63688;SDS011;54895;40.928;14.480;2024-01-30T04:46:07;8.82;;;5.53;;
63688;SDS011;54895;40.928;14.480;2024-01-30T04:48:34;10.63;;;5.80;;
63688;SDS011;54895;40.928;14.480;2024-01-30T04:51:01;9.13;;;4.82;;
63688;SDS011;54895;40.928;14.480;2024-01-30T04:53:29;11.27;;;4.85;;
63688;SDS011;54895;40.928;14.480;2024-01-30T04:55:57;14.13;;;5.35;;
63688;SDS011;54895;40.928;14.480;2024-01-30T04:58:23;12.93;;;6.15;;
63688;SDS011;54895;40.928;14.480;2024-01-30T05:00:50;16.73;;;6.95;;
63688;SDS011;54895;40.928;14.480;2024-01-30T05:03:18;18.35;;;6.93;;
63688;SDS011;54895;40.928;14.480;2024-01-30T05:05:45;19.23;;;8.48;;
63688;SDS011;54895;40.928;14.480;2024-01-30T05:08:12;18.92;;;7.45;;
63688;SDS011;54895;40.928;14.480;2024-01-30T05:10:38;26.73;;;8.48;;
63688;SDS011;54895;40.928;14.480;2024-01-30T05:13:05;20.73;;;7.75;;
63688;SDS011;54895;40.928;14.480;2024-01-30T05:15:31;13.93;;;6.63;;
63688;SDS011;54895;40.928;14.480;2024-01-30T05:17:58;13.35;;;6.78;;
63688;SDS011;54895;40.928;14.480;2024-01-30T05:20:24;15.77;;;6.57;;
63688;SDS011;54895;40.928;14.480;2024-01-30T05:22:54;14.13;;;6.78;;
63688;SDS011;54895;40.928;14.480;2024-01-30T05:25:20;11.30;;;6.90;;
63688;SDS011;54895;40.928;14.480;2024-01-30T05:27:47;16.42;;;8.02;;
63688;SDS011;54895;40.928;14.480;2024-01-30T05:30:13;14.00;;;7.95;;
63688;SDS011;54895;40.928;14.480;2024-01-30T05:36:16;65.13;;;13.40;;
63688;SDS011;54895;40.928;14.480;2024-01-30T05:38:43;139.77;;;19.65;;
63688;SDS011;54895;40.928;14.480;2024-01-30T05:41:09;36.20;;;10.60;;
63688;SDS011;54895;40.928;14.480;2024-01-30T05:43:35;55.22;;;12.35;;
63688;SDS011;54895;40.928;14.480;2024-01-30T05:46:02;44.03;;;11.85;;
63688;SDS011;54895;40.928;14.480;2024-01-30T05:48:28;69.28;;;14.75;;
63688;SDS011;54895;40.928;14.480;2024-01-30T05:50:58;55.42;;;13.05;;
63688;SDS011;54895;40.928;14.480;2024-01-30T05:53:25;53.95;;;11.77;;
63688;SDS011;54895;40.928;14.480;2024-01-30T05:55:52;38.28;;;11.25;;
63688;SDS011;54895;40.928;14.480;2024-01-30T05:58:18;33.33;;;11.68;;
63688;SDS011;54895;40.928;14.480;2024-01-30T06:00:44;38.53;;;10.20;;
63688;SDS011;54895;40.928;14.480;2024-01-30T06:03:11;38.22;;;11.23;;
63688;SDS011;54895;40.928;14.480;2024-01-30T06:05:38;32.63;;;10.18;;
63688;SDS011;54895;40.928;14.480;2024-01-30T06:08:04;30.83;;;9.93;;
63688;SDS011;54895;40.928;14.480;2024-01-30T06:10:31;26.73;;;10.15;;
63688;SDS011;54895;40.928;14.480;2024-01-30T06:12:57;50.20;;;11.63;;
63688;SDS011;54895;40.928;14.480;2024-01-30T06:15:24;50.05;;;10.98;;
63688;SDS011;54895;40.928;14.480;2024-01-30T06:17:50;39.17;;;11.48;;
63688;SDS011;54895;40.928;14.480;2024-01-30T06:20:16;41.17;;;12.50;;
63688;SDS011;54895;40.928;14.480;2024-01-30T06:22:43;39.70;;;11.38;;
63688;SDS011;54895;40.928;14.480;2024-01-30T06:25:10;30.13;;;10.60;;
63688;SDS011;54895;40.928;14.480;2024-01-30T06:27:38;32.65;;;11.18;;
63688;SDS011;54895;40.928;14.480;2024-01-30T06:30:04;38.08;;;10.48;;
63688;SDS011;54895;40.928;14.480;2024-01-30T06:32:31;36.20;;;11.60;;
63688;SDS011;54895;40.928;14.480;2024-01-30T06:35:00;27.17;;;10.35;;
63688;SDS011;54895;40.928;14.480;2024-01-30T06:37:29;29.90;;;10.27;;
63688;SDS011;54895;40.928;14.480;2024-01-30T06:39:55;25.30;;;9.68;;
63688;SDS011;54895;40.928;14.480;2024-01-30T06:42:21;23.00;;;8.73;;
63688;SDS011;54895;40.928;14.480;2024-01-30T06:44:50;26.50;;;12.32;;
63688;SDS011;54895;40.928;14.480;2024-01-30T06:47:16;26.23;;;11.05;;
63688;SDS011;54895;40.928;14.480;2024-01-30T06:49:42;21.50;;;8.73;;
63688;SDS011;54895;40.928;14.480;2024-01-30T06:52:09;12.85;;;6.43;;
63688;SDS011;54895;40.928;14.480;2024-01-30T06:54:36;13.13;;;7.35;;
63688;SDS011;54895;40.928;14.480;2024-01-30T06:57:02;16.73;;;9.02;;
63688;SDS011;54895;40.928;14.480;2024-01-30T06:59:29;21.90;;;10.23;;
63688;SDS011;54895;40.928;14.480;2024-01-30T07:01:55;29.48;;;10.00;;
63688;SDS011;54895;40.928;14.480;2024-01-30T07:04:21;18.95;;;9.55;;
63688;SDS011;54895;40.928;14.480;2024-01-30T07:06:48;26.48;;;9.88;;
63688;SDS011;54895;40.928;14.480;2024-01-30T07:09:14;25.67;;;10.73;;
63688;SDS011;54895;40.928;14.480;2024-01-30T07:11:41;23.17;;;10.50;;
63688;SDS011;54895;40.928;14.480;2024-01-30T07:14:08;25.92;;;9.93;;
63688;SDS011;54895;40.928;14.480;2024-01-30T07:16:35;19.85;;;9.45;;
63688;SDS011;54895;40.928;14.480;2024-01-30T07:19:01;22.30;;;9.27;;
63688;SDS011;54895;40.928;14.480;2024-01-30T07:21:28;20.23;;;8.98;;
63688;SDS011;54895;40.928;14.480;2024-01-30T07:23:54;18.42;;;9.23;;
63688;SDS011;54895;40.928;14.480;2024-01-30T07:26:21;17.67;;;9.45;;
63688;SDS011;54895;40.928;14.480;2024-01-30T07:28:47;19.58;;;9.02;;
63688;SDS011;54895;40.928;14.480;2024-01-30T07:31:14;17.67;;;9.48;;
63688;SDS011;54895;40.928;14.480;2024-01-30T07:37:01;22.50;;;9.45;;
63688;SDS011;54895;40.928;14.480;2024-01-30T07:39:27;16.98;;;9.15;;
63688;SDS011;54895;40.928;14.480;2024-01-30T07:41:54;19.15;;;8.95;;
63688;SDS011;54895;40.928;14.480;2024-01-30T07:44:20;26.88;;;10.60;;
63688;SDS011;54895;40.928;14.480;2024-01-30T07:46:46;19.73;;;10.27;;
63688;SDS011;54895;40.928;14.480;2024-01-30T07:49:13;16.10;;;9.65;;
63688;SDS011;54895;40.928;14.480;2024-01-30T07:51:40;17.45;;;9.57;;
63688;SDS011;54895;40.928;14.480;2024-01-30T07:54:06;19.52;;;10.10;;
63688;SDS011;54895;40.928;14.480;2024-01-30T07:56:33;17.05;;;9.20;;
63688;SDS011;54895;40.928;14.480;2024-01-30T07:59:00;17.10;;;9.70;;
63688;SDS011;54895;40.928;14.480;2024-01-30T08:01:26;15.13;;;8.63;;
63688;SDS011;54895;40.928;14.480;2024-01-30T08:03:53;19.13;;;9.77;;
63688;SDS011;54895;40.928;14.480;2024-01-30T08:06:19;21.42;;;9.98;;
63688;SDS011;54895;40.928;14.480;2024-01-30T08:08:46;21.75;;;9.40;;
63688;SDS011;54895;40.928;14.480;2024-01-30T08:11:12;18.02;;;8.57;;
63688;SDS011;54895;40.928;14.480;2024-01-30T08:13:38;18.52;;;8.20;;
63688;SDS011;54895;40.928;14.480;2024-01-30T08:16:05;19.95;;;7.80;;
63688;SDS011;54895;40.928;14.480;2024-01-30T08:18:31;23.17;;;9.20;;
63688;SDS011;54895;40.928;14.480;2024-01-30T08:20:57;14.45;;;7.75;;
63688;SDS011;54895;40.928;14.480;2024-01-30T08:23:24;14.48;;;7.35;;
63688;SDS011;54895;40.928;14.480;2024-01-30T08:25:50;11.80;;;8.23;;
63688;SDS011;54895;40.928;14.480;2024-01-30T08:28:16;12.43;;;6.85;;
63688;SDS011;54895;40.928;14.480;2024-01-30T08:30:43;12.50;;;6.35;;
63688;SDS011;54895;40.928;14.480;2024-01-30T08:33:09;13.88;;;7.18;;
63688;SDS011;54895;40.928;14.480;2024-01-30T08:38:53;13.63;;;6.72;;
63688;SDS011;54895;40.928;14.480;2024-01-30T08:41:20;15.77;;;7.70;;
63688;SDS011;54895;40.928;14.480;2024-01-30T08:43:46;13.18;;;7.05;;
63688;SDS011;54895;40.928;14.480;2024-01-30T08:46:12;13.32;;;7.25;;
63688;SDS011;54895;40.928;14.480;2024-01-30T08:48:38;14.90;;;7.95;;
63688;SDS011;54895;40.928;14.480;2024-01-30T08:51:05;14.55;;;8.20;;
63688;SDS011;54895;40.928;14.480;2024-01-30T08:53:34;16.58;;;7.72;;
63688;SDS011;54895;40.928;14.480;2024-01-30T08:56:02;17.73;;;8.70;;
63688;SDS011;54895;40.928;14.480;2024-01-30T08:58:29;21.23;;;8.70;;
63688;SDS011;54895;40.928;14.480;2024-01-30T09:00:56;15.75;;;8.63;;
63688;SDS011;54895;40.928;14.480;2024-01-30T09:03:22;14.00;;;7.70;;
63688;SDS011;54895;40.928;14.480;2024-01-30T09:05:49;13.93;;;7.53;;
63688;SDS011;54895;40.928;14.480;2024-01-30T09:08:15;10.13;;;5.82;;
63688;SDS011;54895;40.928;14.480;2024-01-30T09:10:42;12.18;;;6.18;;
63688;SDS011;54895;40.928;14.480;2024-01-30T09:13:08;12.02;;;6.55;;
63688;SDS011;54895;40.928;14.480;2024-01-30T09:15:34;15.50;;;7.10;;
63688;SDS011;54895;40.928;14.480;2024-01-30T09:18:01;11.68;;;6.13;;
63688;SDS011;54895;40.928;14.480;2024-01-30T09:20:28;11.90;;;6.00;;
63688;SDS011;54895;40.928;14.480;2024-01-30T09:22:55;13.20;;;6.95;;
63688;SDS011;54895;40.928;14.480;2024-01-30T09:25:22;13.35;;;7.40;;
63688;SDS011;54895;40.928;14.480;2024-01-30T09:27:48;12.73;;;6.85;;
63688;SDS011;54895;40.928;14.480;2024-01-30T09:30:15;10.48;;;5.50;;
63688;SDS011;54895;40.928;14.480;2024-01-30T09:32:43;10.05;;;6.00;;
63688;SDS011;54895;40.928;14.480;2024-01-30T09:38:50;9.38;;;5.40;;
63688;SDS011;54895;40.928;14.480;2024-01-30T09:41:16;7.68;;;4.63;;
63688;SDS011;54895;40.928;14.480;2024-01-30T09:43:47;8.23;;;4.25;;
63688;SDS011;54895;40.928;14.480;2024-01-30T09:46:17;6.50;;;3.75;;
63688;SDS011;54895;40.928;14.480;2024-01-30T09:48:46;7.28;;;4.07;;
63688;SDS011;54895;40.928;14.480;2024-01-30T09:51:14;10.88;;;4.40;;
63688;SDS011;54895;40.928;14.480;2024-01-30T09:53:42;9.25;;;5.13;;
63688;SDS011;54895;40.928;14.480;2024-01-30T09:56:10;6.63;;;4.50;;
63688;SDS011;54895;40.928;14.480;2024-01-30T09:58:38;7.85;;;4.40;;
63688;SDS011;54895;40.928;14.480;2024-01-30T10:01:05;7.97;;;5.00;;
63688;SDS011;54895;40.928;14.480;2024-01-30T10:03:33;9.73;;;4.95;;
63688;SDS011;54895;40.928;14.480;2024-01-30T10:06:00;8.20;;;4.00;;
63688;SDS011;54895;40.928;14.480;2024-01-30T10:08:27;7.07;;;3.80;;
63688;SDS011;54895;40.928;14.480;2024-01-30T10:10:55;6.43;;;3.53;;
63688;SDS011;54895;40.928;14.480;2024-01-30T10:13:22;6.78;;;3.40;;
63688;SDS011;54895;40.928;14.480;2024-01-30T10:15:49;7.13;;;3.47;;
63688;SDS011;54895;40.928;14.480;2024-01-30T10:18:16;7.35;;;3.30;;
63688;SDS011;54895;40.928;14.480;2024-01-30T10:20:42;5.05;;;3.20;;
63688;SDS011;54895;40.928;14.480;2024-01-30T10:23:09;6.35;;;3.70;;
63688;SDS011;54895;40.928;14.480;2024-01-30T10:25:35;7.03;;;3.65;;
63688;SDS011;54895;40.928;14.480;2024-01-30T10:28:02;6.70;;;3.92;;
63688;SDS011;54895;40.928;14.480;2024-01-30T10:30:31;10.48;;;3.53;;
63688;SDS011;54895;40.928;14.480;2024-01-30T10:32:57;6.65;;;3.80;;
63688;SDS011;54895;40.928;14.480;2024-01-30T10:35:23;5.78;;;3.90;;
63688;SDS011;54895;40.928;14.480;2024-01-30T10:37:50;6.45;;;3.83;;
63688;SDS011;54895;40.928;14.480;2024-01-30T10:40:16;13.75;;;4.65;;
63688;SDS011;54895;40.928;14.480;2024-01-30T10:42:43;7.95;;;4.28;;
63688;SDS011;54895;40.928;14.480;2024-01-30T10:45:11;6.43;;;3.80;;
63688;SDS011;54895;40.928;14.480;2024-01-30T10:47:54;8.55;;;3.55;;
63688;SDS011;54895;40.928;14.480;2024-01-30T10:50:24;7.13;;;4.10;;
63688;SDS011;54895;40.928;14.480;2024-01-30T10:52:50;7.80;;;4.72;;
63688;SDS011;54895;40.928;14.480;2024-01-30T10:55:18;8.57;;;4.63;;
63688;SDS011;54895;40.928;14.480;2024-01-30T10:57:44;8.63;;;4.90;;
63688;SDS011;54895;40.928;14.480;2024-01-30T11:00:11;8.48;;;5.32;;
63688;SDS011;54895;40.928;14.480;2024-01-30T11:02:41;12.13;;;5.30;;
63688;SDS011;54895;40.928;14.480;2024-01-30T11:05:10;12.00;;;5.22;;
63688;SDS011;54895;40.928;14.480;2024-01-30T11:07:38;9.82;;;4.40;;
63688;SDS011;54895;40.928;14.480;2024-01-30T11:10:08;8.75;;;4.70;;
63688;SDS011;54895;40.928;14.480;2024-01-30T11:12:39;6.78;;;4.10;;
63688;SDS011;54895;40.928;14.480;2024-01-30T11:15:11;6.90;;;4.35;;
63688;SDS011;54895;40.928;14.480;2024-01-30T11:17:44;8.32;;;4.60;;
63688;SDS011;54895;40.928;14.480;2024-01-30T11:20:14;9.38;;;4.78;;
63688;SDS011;54895;40.928;14.480;2024-01-30T11:22:44;11.10;;;4.70;;
63688;SDS011;54895;40.928;14.480;2024-01-30T11:25:15;8.40;;;4.63;;
63688;SDS011;54895;40.928;14.480;2024-01-30T11:27:43;8.13;;;4.00;;
63688;SDS011;54895;40.928;14.480;2024-01-30T11:30:10;6.45;;;3.75;;
63688;SDS011;54895;40.928;14.480;2024-01-30T11:32:37;8.45;;;4.45;;
63688;SDS011;54895;40.928;14.480;2024-01-30T11:35:04;5.95;;;4.15;;
63688;SDS011;54895;40.928;14.480;2024-01-30T11:40:52;6.18;;;4.15;;
63688;SDS011;54895;40.928;14.480;2024-01-30T11:43:20;6.65;;;4.13;;
63688;SDS011;54895;40.928;14.480;2024-01-30T11:45:46;10.32;;;4.03;;
63688;SDS011;54895;40.928;14.480;2024-01-30T11:48:12;6.65;;;3.97;;
63688;SDS011;54895;40.928;14.480;2024-01-30T11:50:39;10.82;;;4.70;;
63688;SDS011;54895;40.928;14.480;2024-01-30T11:53:10;6.22;;;4.05;;
63688;SDS011;54895;40.928;14.480;2024-01-30T11:55:37;8.65;;;4.53;;
63688;SDS011;54895;40.928;14.480;2024-01-30T11:58:03;7.50;;;4.40;;
63688;SDS011;54895;40.928;14.480;2024-01-30T12:00:30;8.75;;;4.60;;
63688;SDS011;54895;40.928;14.480;2024-01-30T12:02:59;9.23;;;4.57;;
63688;SDS011;54895;40.928;14.480;2024-01-30T12:05:26;12.98;;;4.70;;
63688;SDS011;54895;40.928;14.480;2024-01-30T12:07:53;8.13;;;4.45;;
63688;SDS011;54895;40.928;14.480;2024-01-30T12:10:20;8.63;;;4.68;;
63688;SDS011;54895;40.928;14.480;2024-01-30T12:12:48;11.10;;;4.47;;
63688;SDS011;54895;40.928;14.480;2024-01-30T12:15:16;9.73;;;4.10;;
63688;SDS011;54895;40.928;14.480;2024-01-30T12:17:43;8.30;;;4.30;;
63688;SDS011;54895;40.928;14.480;2024-01-30T12:20:10;7.85;;;4.78;;
63688;SDS011;54895;40.928;14.480;2024-01-30T12:22:42;12.63;;;5.00;;
63688;SDS011;54895;40.928;14.480;2024-01-30T12:25:15;18.05;;;4.85;;
63688;SDS011;54895;40.928;14.480;2024-01-30T12:27:43;9.18;;;4.47;;
63688;SDS011;54895;40.928;14.480;2024-01-30T12:30:12;6.85;;;4.30;;
63688;SDS011;54895;40.928;14.480;2024-01-30T12:32:49;7.07;;;4.65;;
63688;SDS011;54895;40.928;14.480;2024-01-30T12:35:17;9.05;;;4.70;;
63688;SDS011;54895;40.928;14.480;2024-01-30T12:37:45;8.43;;;4.82;;
63688;SDS011;54895;40.928;14.480;2024-01-30T12:40:13;7.05;;;4.25;;
63688;SDS011;54895;40.928;14.480;2024-01-30T12:42:40;7.07;;;4.47;;
63688;SDS011;54895;40.928;14.480;2024-01-30T12:45:13;11.20;;;4.63;;
63688;SDS011;54895;40.928;14.480;2024-01-30T12:47:41;6.72;;;4.25;;
63688;SDS011;54895;40.928;14.480;2024-01-30T12:50:07;8.60;;;4.40;;
63688;SDS011;54895;40.928;14.480;2024-01-30T12:52:34;9.35;;;4.50;;
63688;SDS011;54895;40.928;14.480;2024-01-30T12:55:01;6.25;;;4.20;;
63688;SDS011;54895;40.928;14.480;2024-01-30T12:57:30;7.60;;;4.20;;
63688;SDS011;54895;40.928;14.480;2024-01-30T12:59:56;8.18;;;4.63;;
63688;SDS011;54895;40.928;14.480;2024-01-30T13:02:22;6.15;;;4.40;;
63688;SDS011;54895;40.928;14.480;2024-01-30T13:04:49;7.53;;;4.10;;
63688;SDS011;54895;40.928;14.480;2024-01-30T13:07:15;7.50;;;4.32;;
63688;SDS011;54895;40.928;14.480;2024-01-30T13:09:42;8.60;;;4.13;;
63688;SDS011;54895;40.928;14.480;2024-01-30T13:12:08;8.70;;;4.50;;
63688;SDS011;54895;40.928;14.480;2024-01-30T13:14:34;8.70;;;4.43;;
63688;SDS011;54895;40.928;14.480;2024-01-30T13:17:01;10.73;;;4.38;;
63688;SDS011;54895;40.928;14.480;2024-01-30T13:19:28;7.55;;;3.92;;
63688;SDS011;54895;40.928;14.480;2024-01-30T13:21:54;9.57;;;4.38;;
63688;SDS011;54895;40.928;14.480;2024-01-30T13:24:20;12.77;;;3.83;;
63688;SDS011;54895;40.928;14.480;2024-01-30T13:26:47;10.02;;;4.47;;
63688;SDS011;54895;40.928;14.480;2024-01-30T13:29:14;7.40;;;4.60;;
63688;SDS011;54895;40.928;14.480;2024-01-30T13:31:41;12.75;;;4.55;;
63688;SDS011;54895;40.928;14.480;2024-01-30T13:34:07;5.43;;;3.90;;
63688;SDS011;54895;40.928;14.480;2024-01-30T13:36:34;5.38;;;3.42;;
63688;SDS011;54895;40.928;14.480;2024-01-30T13:41:51;8.35;;;4.28;;
63688;SDS011;54895;40.928;14.480;2024-01-30T13:44:17;7.63;;;4.22;;
63688;SDS011;54895;40.928;14.480;2024-01-30T13:46:44;7.28;;;3.97;;
63688;SDS011;54895;40.928;14.480;2024-01-30T13:49:12;9.15;;;4.20;;
63688;SDS011;54895;40.928;14.480;2024-01-30T13:51:38;8.45;;;4.25;;
63688;SDS011;54895;40.928;14.480;2024-01-30T13:54:04;9.23;;;4.78;;
63688;SDS011;54895;40.928;14.480;2024-01-30T13:56:31;9.50;;;4.93;;
63688;SDS011;54895;40.928;14.480;2024-01-30T13:58:57;15.50;;;4.95;;
63688;SDS011;54895;40.928;14.480;2024-01-30T14:01:24;8.88;;;4.75;;
63688;SDS011;54895;40.928;14.480;2024-01-30T14:03:50;11.93;;;5.40;;
63688;SDS011;54895;40.928;14.480;2024-01-30T14:06:17;9.57;;;4.95;;
63688;SDS011;54895;40.928;14.480;2024-01-30T14:08:44;12.38;;;5.13;;
63688;SDS011;54895;40.928;14.480;2024-01-30T14:11:10;12.73;;;5.05;;
63688;SDS011;54895;40.928;14.480;2024-01-30T14:13:37;9.32;;;5.82;;
63688;SDS011;54895;40.928;14.480;2024-01-30T14:16:03;9.90;;;4.93;;
63688;SDS011;54895;40.928;14.480;2024-01-30T14:18:30;9.20;;;4.85;;
63688;SDS011;54895;40.928;14.480;2024-01-30T14:20:56;10.55;;;4.72;;
63688;SDS011;54895;40.928;14.480;2024-01-30T14:23:23;15.30;;;5.30;;
63688;SDS011;54895;40.928;14.480;2024-01-30T14:25:50;12.70;;;5.10;;
63688;SDS011;54895;40.928;14.480;2024-01-30T14:28:17;22.20;;;5.53;;
63688;SDS011;54895;40.928;14.480;2024-01-30T14:30:43;10.48;;;4.70;;
63688;SDS011;54895;40.928;14.480;2024-01-30T14:33:10;12.48;;;4.78;;
63688;SDS011;54895;40.928;14.480;2024-01-30T14:35:36;10.98;;;4.35;;
63688;SDS011;54895;40.928;14.480;2024-01-30T14:38:02;9.93;;;4.90;;
63688;SDS011;54895;40.928;14.480;2024-01-30T14:40:31;8.43;;;4.85;;
63688;SDS011;54895;40.928;14.480;2024-01-30T14:42:57;8.65;;;5.25;;
63688;SDS011;54895;40.928;14.480;2024-01-30T14:45:24;11.70;;;4.88;;
63688;SDS011;54895;40.928;14.480;2024-01-30T14:47:50;9.30;;;4.70;;
63688;SDS011;54895;40.928;14.480;2024-01-30T14:50:16;11.18;;;6.07;;
63688;SDS011;54895;40.928;14.480;2024-01-30T14:52:43;15.48;;;6.10;;
63688;SDS011;54895;40.928;14.480;2024-01-30T14:55:10;10.43;;;6.05;;
63688;SDS011;54895;40.928;14.480;2024-01-30T14:57:36;12.75;;;6.80;;
63688;SDS011;54895;40.928;14.480;2024-01-30T15:00:04;12.63;;;5.90;;